Milei Airstrip

AYEI · Northern Province, 巴布亚新几内亚

METAR AYEI · Milei Airstrip

罗盘
风向 的 风向 320°
风: 5 kt, 2 beaufort

添加一条跑道以查看侧风和逆风信息。

添置 跑道
0 1.000 2.000 3.000 4.000 5.000
FEW 1.000 ft
SCT 5.000 ft
METAR AYPY 071300Z 32005KT 9999 FEW010 SCT050 26/25 Q1007

METAR Milei Airstrip - AYEI

Milei Airstrip是,巴布亚新几内亚中的小机场。 视场标高为2.160 ft。 该领域的国际民航组织标志是AYEI.

这份报告是针对2022年12月7日 23:00, 当地时间在傑克遜斯國際機場进行的。

机场观察

风向为320°,速度为5 kt。

可见度为10 km 或者更多。

有几云在1.000 ft的高度 和 疏云,零星散落的云朵在5.000 ft的高度。 没有观察到天花板。

温度和风寒是26 °C。 露点为25 °C,相对湿度为94%。 海平面上的气压为1007 hPa (QNH)。

白天

今天,太阳从05:41升起,在18:19降落。 这适用于Milei Airstrip,世界夏令时可能有所不同。 当地时间与世界标准时间之间的时差为+10 小时。 当前,没有夏令时有效。

公司介绍

我们没有关于这个机场的公司信息。

体会

到Vliegles.nl去找飞行课程,跳伞和其他飞行体验。 浏览页面,了解Milei Airstrip附近所有可用的活动。 你也可以使用搜索功能来寻找你所在地附近的特定飞行课程、跳伞或其他飞行体验。

乌云

1.000 ft FEW 几云
5.000 ft SCT 疏云,零星散落的云朵

温度 & 天气

温度 26 °C
露点 25 °C
相对湿度 94%
Kp-index 5 (0-9)

白天

日出
05:42 (6:21)
中午
12:02
日落
18:22

小工具

你想在你的网站上有一个关于Milei Airstrip的当前航空天气(METAR)的小部件吗?

显示HTML代码

我们和第三方通过cookies跟踪您在我们网站上的互联网行为。如果你继续,我们认为你同意我们的饼干政策